sensor_id;sensor_type;location;lat;lon;timestamp;temperature;humidity
30381;DHT22;17169;50.966;11.038;2022-12-13T00:02:22;-5.40;99.90
30381;DHT22;17169;50.966;11.038;2022-12-13T00:05:27;-5.30;99.90
30381;DHT22;17169;50.966;11.038;2022-12-13T00:08:29;-5.40;99.90
30381;DHT22;17169;50.966;11.038;2022-12-13T00:11:31;-5.50;99.90
30381;DHT22;17169;50.966;11.038;2022-12-13T00:14:34;-5.60;99.90
30381;DHT22;17169;50.966;11.038;2022-12-13T00:17:37;-5.60;99.90
30381;DHT22;17169;50.966;11.038;2022-12-13T00:20:40;-5.60;99.90
30381;DHT22;17169;50.966;11.038;2022-12-13T00:23:43;-5.60;99.90
30381;DHT22;17169;50.966;11.038;2022-12-13T00:26:46;-5.60;99.90
30381;DHT22;17169;50.966;11.038;2022-12-13T00:29:48;-5.60;99.90
30381;DHT22;17169;50.966;11.038;2022-12-13T00:32:51;-5.60;99.90
30381;DHT22;17169;50.966;11.038;2022-12-13T00:35:55;-5.50;99.90
30381;DHT22;17169;50.966;11.038;2022-12-13T00:38:57;-5.50;99.90
30381;DHT22;17169;50.966;11.038;2022-12-13T00:42:02;-5.60;99.90
30381;DHT22;17169;50.966;11.038;2022-12-13T00:45:05;-5.70;99.90
30381;DHT22;17169;50.966;11.038;2022-12-13T00:48:09;-5.70;99.90
30381;DHT22;17169;50.966;11.038;2022-12-13T00:51:13;-5.80;99.90
30381;DHT22;17169;50.966;11.038;2022-12-13T00:54:15;-5.80;99.90
30381;DHT22;17169;50.966;11.038;2022-12-13T00:57:18;-5.90;99.90
30381;DHT22;17169;50.966;11.038;2022-12-13T01:00:21;-5.90;99.90
30381;DHT22;17169;50.966;11.038;2022-12-13T01:03:25;-5.90;99.90
30381;DHT22;17169;50.966;11.038;2022-12-13T01:06:33;-5.90;99.90
30381;DHT22;17169;50.966;11.038;2022-12-13T01:09:38;-5.90;99.90
30381;DHT22;17169;50.966;11.038;2022-12-13T01:12:42;-5.90;99.90
30381;DHT22;17169;50.966;11.038;2022-12-13T01:15:46;-6.00;99.90
30381;DHT22;17169;50.966;11.038;2022-12-13T01:18:48;-6.00;99.90
30381;DHT22;17169;50.966;11.038;2022-12-13T01:21:54;-6.10;99.90
30381;DHT22;17169;50.966;11.038;2022-12-13T01:24:57;-6.10;99.90
30381;DHT22;17169;50.966;11.038;2022-12-13T01:27:59;-6.20;99.90
30381;DHT22;17169;50.966;11.038;2022-12-13T01:31:05;-6.20;99.90
30381;DHT22;17169;50.966;11.038;2022-12-13T01:34:08;-6.20;99.90
30381;DHT22;17169;50.966;11.038;2022-12-13T01:37:15;-6.20;99.90
30381;DHT22;17169;50.966;11.038;2022-12-13T01:40:20;-6.20;99.90
30381;DHT22;17169;50.966;11.038;2022-12-13T01:43:23;-6.20;99.90
30381;DHT22;17169;50.966;11.038;2022-12-13T01:46:26;-6.10;99.90
30381;DHT22;17169;50.966;11.038;2022-12-13T01:49:28;-6.10;99.90
30381;DHT22;17169;50.966;11.038;2022-12-13T01:52:33;-6.10;99.90
30381;DHT22;17169;50.966;11.038;2022-12-13T01:55:37;-6.20;99.90
30381;DHT22;17169;50.966;11.038;2022-12-13T01:58:41;-6.10;99.90
30381;DHT22;17169;50.966;11.038;2022-12-13T02:01:45;-6.10;99.90
30381;DHT22;17169;50.966;11.038;2022-12-13T02:04:51;-6.10;99.90
30381;DHT22;17169;50.966;11.038;2022-12-13T02:07:59;-6.10;99.90
30381;DHT22;17169;50.966;11.038;2022-12-13T02:11:02;-6.10;99.90
30381;DHT22;17169;50.966;11.038;2022-12-13T02:14:05;-6.10;99.90
30381;DHT22;17169;50.966;11.038;2022-12-13T02:17:17;-6.10;99.90
30381;DHT22;17169;50.966;11.038;2022-12-13T02:20:44;-6.20;99.90
30381;DHT22;17169;50.966;11.038;2022-12-13T02:27:44;-6.40;99.90
30381;DHT22;17169;50.966;11.038;2022-12-13T02:30:57;-6.40;99.90
30381;DHT22;17169;50.966;11.038;2022-12-13T02:34:05;-6.40;99.90
30381;DHT22;17169;50.966;11.038;2022-12-13T02:37:17;-6.50;99.90
30381;DHT22;17169;50.966;11.038;2022-12-13T02:40:24;-6.40;99.90
30381;DHT22;17169;50.966;11.038;2022-12-13T02:43:30;-6.40;99.90
30381;DHT22;17169;50.966;11.038;2022-12-13T02:46:39;-6.40;99.90
30381;DHT22;17169;50.966;11.038;2022-12-13T02:49:45;-6.30;99.90
30381;DHT22;17169;50.966;11.038;2022-12-13T02:52:50;-6.30;99.90
30381;DHT22;17169;50.966;11.038;2022-12-13T02:55:53;-6.40;99.90
30381;DHT22;17169;50.966;11.038;2022-12-13T02:58:57;-6.40;99.90
30381;DHT22;17169;50.966;11.038;2022-12-13T03:02:07;-6.40;99.90
30381;DHT22;17169;50.966;11.038;2022-12-13T03:05:20;-6.40;99.90
30381;DHT22;17169;50.966;11.038;2022-12-13T03:08:50;-6.40;99.90
30381;DHT22;17169;50.966;11.038;2022-12-13T03:12:07;-6.40;99.90
30381;DHT22;17169;50.966;11.038;2022-12-13T03:15:34;-6.40;99.90
30381;DHT22;17169;50.966;11.038;2022-12-13T03:18:43;-6.40;99.90
30381;DHT22;17169;50.966;11.038;2022-12-13T03:21:47;-6.40;99.90
30381;DHT22;17169;50.966;11.038;2022-12-13T03:24:51;-6.40;99.90
30381;DHT22;17169;50.966;11.038;2022-12-13T03:27:53;-6.30;99.90
30381;DHT22;17169;50.966;11.038;2022-12-13T03:30:55;-6.30;99.90
30381;DHT22;17169;50.966;11.038;2022-12-13T03:34:00;-6.20;99.90
30381;DHT22;17169;50.966;11.038;2022-12-13T03:37:03;-6.30;99.90
30381;DHT22;17169;50.966;11.038;2022-12-13T03:40:06;-6.30;99.90
30381;DHT22;17169;50.966;11.038;2022-12-13T03:43:08;-6.30;99.90
30381;DHT22;17169;50.966;11.038;2022-12-13T03:46:11;-6.20;99.90
30381;DHT22;17169;50.966;11.038;2022-12-13T03:49:15;-6.20;99.90
30381;DHT22;17169;50.966;11.038;2022-12-13T03:52:17;-6.20;99.90
30381;DHT22;17169;50.966;11.038;2022-12-13T03:55:19;-6.10;99.90
30381;DHT22;17169;50.966;11.038;2022-12-13T03:58:22;-6.20;99.90
30381;DHT22;17169;50.966;11.038;2022-12-13T04:01:25;-6.40;99.90
30381;DHT22;17169;50.966;11.038;2022-12-13T04:04:28;-6.40;99.90
30381;DHT22;17169;50.966;11.038;2022-12-13T04:07:31;-6.50;99.90
30381;DHT22;17169;50.966;11.038;2022-12-13T04:10:33;-6.40;99.90
30381;DHT22;17169;50.966;11.038;2022-12-13T04:13:36;-6.40;99.90
30381;DHT22;17169;50.966;11.038;2022-12-13T04:16:37;-6.40;99.90
30381;DHT22;17169;50.966;11.038;2022-12-13T04:19:41;-6.40;99.90
30381;DHT22;17169;50.966;11.038;2022-12-13T04:22:44;-6.40;99.90
30381;DHT22;17169;50.966;11.038;2022-12-13T04:25:46;-6.40;99.90
30381;DHT22;17169;50.966;11.038;2022-12-13T04:28:48;-6.40;99.90
30381;DHT22;17169;50.966;11.038;2022-12-13T04:31:51;-6.40;99.90
30381;DHT22;17169;50.966;11.038;2022-12-13T04:34:54;-6.40;99.90
30381;DHT22;17169;50.966;11.038;2022-12-13T04:37:57;-6.40;99.90
30381;DHT22;17169;50.966;11.038;2022-12-13T04:41:07;-6.40;99.90
30381;DHT22;17169;50.966;11.038;2022-12-13T04:44:10;-6.40;99.90
30381;DHT22;17169;50.966;11.038;2022-12-13T04:47:12;-6.50;99.90
30381;DHT22;17169;50.966;11.038;2022-12-13T04:50:16;-6.50;99.90
30381;DHT22;17169;50.966;11.038;2022-12-13T04:53:18;-6.60;99.90
30381;DHT22;17169;50.966;11.038;2022-12-13T04:56:21;-6.70;99.90
30381;DHT22;17169;50.966;11.038;2022-12-13T04:59:23;-6.80;99.90
30381;DHT22;17169;50.966;11.038;2022-12-13T05:02:25;-6.80;99.90
30381;DHT22;17169;50.966;11.038;2022-12-13T05:05:29;-6.80;99.90
30381;DHT22;17169;50.966;11.038;2022-12-13T05:08:32;-6.90;99.90
30381;DHT22;17169;50.966;11.038;2022-12-13T05:11:34;-6.90;99.90
30381;DHT22;17169;50.966;11.038;2022-12-13T05:14:36;-6.90;99.90
30381;DHT22;17169;50.966;11.038;2022-12-13T05:17:39;-6.90;99.90
30381;DHT22;17169;50.966;11.038;2022-12-13T05:20:43;-6.90;99.90
30381;DHT22;17169;50.966;11.038;2022-12-13T05:23:45;-7.00;99.90
30381;DHT22;17169;50.966;11.038;2022-12-13T05:26:47;-7.00;99.90
30381;DHT22;17169;50.966;11.038;2022-12-13T05:29:50;-7.00;99.90
30381;DHT22;17169;50.966;11.038;2022-12-13T05:32:52;-7.10;99.90
30381;DHT22;17169;50.966;11.038;2022-12-13T05:35:56;-7.00;99.90
30381;DHT22;17169;50.966;11.038;2022-12-13T05:38:58;-7.10;99.90
30381;DHT22;17169;50.966;11.038;2022-12-13T05:42:00;-7.20;99.90
30381;DHT22;17169;50.966;11.038;2022-12-13T05:45:04;-7.30;99.90
30381;DHT22;17169;50.966;11.038;2022-12-13T05:48:07;-7.40;99.90
30381;DHT22;17169;50.966;11.038;2022-12-13T05:51:11;-7.40;99.90
30381;DHT22;17169;50.966;11.038;2022-12-13T05:54:14;-7.40;99.90
30381;DHT22;17169;50.966;11.038;2022-12-13T05:57:16;-7.40;99.90
30381;DHT22;17169;50.966;11.038;2022-12-13T06:00:19;-7.50;99.90
30381;DHT22;17169;50.966;11.038;2022-12-13T06:03:21;-7.40;99.90
30381;DHT22;17169;50.966;11.038;2022-12-13T06:06:25;-7.40;99.90
30381;DHT22;17169;50.966;11.038;2022-12-13T06:09:27;-7.50;99.90
30381;DHT22;17169;50.966;11.038;2022-12-13T06:12:30;-7.60;99.90
30381;DHT22;17169;50.966;11.038;2022-12-13T06:15:33;-7.70;99.90
30381;DHT22;17169;50.966;11.038;2022-12-13T06:18:35;-7.70;99.90
30381;DHT22;17169;50.966;11.038;2022-12-13T06:21:39;-7.80;99.90
30381;DHT22;17169;50.966;11.038;2022-12-13T06:24:41;-7.80;99.90
30381;DHT22;17169;50.966;11.038;2022-12-13T06:27:44;-7.90;99.90
30381;DHT22;17169;50.966;11.038;2022-12-13T06:30:46;-8.00;99.90
30381;DHT22;17169;50.966;11.038;2022-12-13T06:33:52;-8.00;99.90
30381;DHT22;17169;50.966;11.038;2022-12-13T06:36:55;-8.00;99.90
30381;DHT22;17169;50.966;11.038;2022-12-13T06:39:58;-8.10;99.90
30381;DHT22;17169;50.966;11.038;2022-12-13T06:43:00;-8.10;99.90
30381;DHT22;17169;50.966;11.038;2022-12-13T06:46:03;-8.10;99.90
30381;DHT22;17169;50.966;11.038;2022-12-13T06:49:06;-8.10;99.90
30381;DHT22;17169;50.966;11.038;2022-12-13T06:52:10;-8.10;99.90
30381;DHT22;17169;50.966;11.038;2022-12-13T06:55:13;-8.10;99.90
30381;DHT22;17169;50.966;11.038;2022-12-13T06:58:15;-8.00;99.90
30381;DHT22;17169;50.966;11.038;2022-12-13T07:01:17;-8.00;99.90
30381;DHT22;17169;50.966;11.038;2022-12-13T07:04:20;-8.00;99.90
30381;DHT22;17169;50.966;11.038;2022-12-13T07:07:24;-8.00;99.90
30381;DHT22;17169;50.966;11.038;2022-12-13T07:10:27;-8.00;99.90
30381;DHT22;17169;50.966;11.038;2022-12-13T07:13:29;-8.00;99.90
30381;DHT22;17169;50.966;11.038;2022-12-13T07:16:32;-7.90;99.90
30381;DHT22;17169;50.966;11.038;2022-12-13T07:19:35;-7.90;99.90
30381;DHT22;17169;50.966;11.038;2022-12-13T07:22:38;-7.80;99.90
30381;DHT22;17169;50.966;11.038;2022-12-13T07:25:41;-7.90;99.90
30381;DHT22;17169;50.966;11.038;2022-12-13T07:28:43;-7.80;99.90
30381;DHT22;17169;50.966;11.038;2022-12-13T07:31:45;-7.80;99.90
30381;DHT22;17169;50.966;11.038;2022-12-13T07:34:48;-7.70;99.90
30381;DHT22;17169;50.966;11.038;2022-12-13T07:37:52;-7.70;99.90
30381;DHT22;17169;50.966;11.038;2022-12-13T07:40:56;-7.70;99.90
30381;DHT22;17169;50.966;11.038;2022-12-13T07:43:58;-7.70;99.90
30381;DHT22;17169;50.966;11.038;2022-12-13T07:47:01;-7.60;99.90
30381;DHT22;17169;50.966;11.038;2022-12-13T07:50:04;-7.60;99.90
30381;DHT22;17169;50.966;11.038;2022-12-13T07:53:08;-7.60;99.90
30381;DHT22;17169;50.966;11.038;2022-12-13T07:56:11;-7.60;99.90
30381;DHT22;17169;50.966;11.038;2022-12-13T07:59:13;-7.60;99.90
30381;DHT22;17169;50.966;11.038;2022-12-13T08:02:15;-7.60;99.90
30381;DHT22;17169;50.966;11.038;2022-12-13T08:05:18;-7.50;99.90
30381;DHT22;17169;50.966;11.038;2022-12-13T08:08:23;-7.40;99.90
30381;DHT22;17169;50.966;11.038;2022-12-13T08:11:25;-7.40;99.90
30381;DHT22;17169;50.966;11.038;2022-12-13T08:14:27;-7.40;99.90
30381;DHT22;17169;50.966;11.038;2022-12-13T08:17:30;-7.40;99.90
30381;DHT22;17169;50.966;11.038;2022-12-13T08:20:32;-7.40;99.90
30381;DHT22;17169;50.966;11.038;2022-12-13T08:23:36;-7.40;99.90
30381;DHT22;17169;50.966;11.038;2022-12-13T08:26:38;-7.30;99.90
30381;DHT22;17169;50.966;11.038;2022-12-13T08:29:41;-7.30;99.90
30381;DHT22;17169;50.966;11.038;2022-12-13T08:32:43;-7.30;99.90
30381;DHT22;17169;50.966;11.038;2022-12-13T08:35:45;-7.20;99.90
30381;DHT22;17169;50.966;11.038;2022-12-13T08:38:49;-7.10;99.90
30381;DHT22;17169;50.966;11.038;2022-12-13T08:41:53;-7.00;99.90
30381;DHT22;17169;50.966;11.038;2022-12-13T08:44:55;-6.90;99.90
30381;DHT22;17169;50.966;11.038;2022-12-13T08:47:58;-6.70;99.90
30381;DHT22;17169;50.966;11.038;2022-12-13T08:51:02;-6.60;99.90
30381;DHT22;17169;50.966;11.038;2022-12-13T08:54:06;-6.50;99.90
30381;DHT22;17169;50.966;11.038;2022-12-13T08:57:08;-6.40;99.90
30381;DHT22;17169;50.966;11.038;2022-12-13T09:00:12;-6.30;99.90
30381;DHT22;17169;50.966;11.038;2022-12-13T09:03:15;-6.20;99.90
30381;DHT22;17169;50.966;11.038;2022-12-13T09:06:17;-6.10;99.90
30381;DHT22;17169;50.966;11.038;2022-12-13T09:09:21;-6.00;99.90
30381;DHT22;17169;50.966;11.038;2022-12-13T09:12:23;-5.90;99.90
30381;DHT22;17169;50.966;11.038;2022-12-13T09:15:26;-5.90;99.90
30381;DHT22;17169;50.966;11.038;2022-12-13T09:18:28;-6.00;99.90
30381;DHT22;17169;50.966;11.038;2022-12-13T09:21:31;-6.00;99.90
30381;DHT22;17169;50.966;11.038;2022-12-13T09:24:35;-5.90;99.90
30381;DHT22;17169;50.966;11.038;2022-12-13T09:27:37;-5.80;99.90
30381;DHT22;17169;50.966;11.038;2022-12-13T09:30:40;-5.80;99.90
30381;DHT22;17169;50.966;11.038;2022-12-13T09:33:43;-5.70;99.90
30381;DHT22;17169;50.966;11.038;2022-12-13T09:36:45;-5.60;99.90
30381;DHT22;17169;50.966;11.038;2022-12-13T09:39:49;-5.50;99.90
30381;DHT22;17169;50.966;11.038;2022-12-13T09:42:53;-5.40;99.90
30381;DHT22;17169;50.966;11.038;2022-12-13T09:45:56;-5.20;99.90
30381;DHT22;17169;50.966;11.038;2022-12-13T09:49:02;-5.10;99.90
30381;DHT22;17169;50.966;11.038;2022-12-13T09:52:09;-5.10;99.90
30381;DHT22;17169;50.966;11.038;2022-12-13T09:55:21;-4.90;99.90
30381;DHT22;17169;50.966;11.038;2022-12-13T09:58:26;-4.80;99.90
30381;DHT22;17169;50.966;11.038;2022-12-13T10:01:29;-4.70;99.90
30381;DHT22;17169;50.966;11.038;2022-12-13T10:04:31;-4.70;99.90
30381;DHT22;17169;50.966;11.038;2022-12-13T10:07:34;-4.60;99.90
30381;DHT22;17169;50.966;11.038;2022-12-13T10:10:42;-4.50;99.90
30381;DHT22;17169;50.966;11.038;2022-12-13T10:13:45;-4.40;99.90
30381;DHT22;17169;50.966;11.038;2022-12-13T10:16:51;-4.30;99.90
30381;DHT22;17169;50.966;11.038;2022-12-13T10:19:57;-4.10;99.90
30381;DHT22;17169;50.966;11.038;2022-12-13T10:23:00;-4.10;99.90
30381;DHT22;17169;50.966;11.038;2022-12-13T10:26:08;-3.90;99.90
30381;DHT22;17169;50.966;11.038;2022-12-13T10:29:11;-3.90;99.90
30381;DHT22;17169;50.966;11.038;2022-12-13T10:32:16;-3.80;99.90
30381;DHT22;17169;50.966;11.038;2022-12-13T10:35:25;-3.70;99.90
30381;DHT22;17169;50.966;11.038;2022-12-13T10:38:29;-3.80;99.90
30381;DHT22;17169;50.966;11.038;2022-12-13T10:41:37;-3.70;99.90
30381;DHT22;17169;50.966;11.038;2022-12-13T10:44:39;-3.70;99.90
30381;DHT22;17169;50.966;11.038;2022-12-13T10:47:43;-3.70;99.90
30381;DHT22;17169;50.966;11.038;2022-12-13T10:50:55;-3.60;99.90
30381;DHT22;17169;50.966;11.038;2022-12-13T10:53:59;-3.50;99.90
30381;DHT22;17169;50.966;11.038;2022-12-13T10:57:03;-3.50;99.90
30381;DHT22;17169;50.966;11.038;2022-12-13T11:00:30;-3.40;99.90
30381;DHT22;17169;50.966;11.038;2022-12-13T11:03:34;-3.30;99.90
30381;DHT22;17169;50.966;11.038;2022-12-13T11:06:41;-3.30;99.90
30381;DHT22;17169;50.966;11.038;2022-12-13T11:09:43;-3.20;99.90
30381;DHT22;17169;50.966;11.038;2022-12-13T11:12:48;-3.10;99.90
30381;DHT22;17169;50.966;11.038;2022-12-13T11:15:54;-3.00;99.90
30381;DHT22;17169;50.966;11.038;2022-12-13T11:18:59;-2.90;99.90
30381;DHT22;17169;50.966;11.038;2022-12-13T11:22:03;-2.80;99.90
30381;DHT22;17169;50.966;11.038;2022-12-13T11:25:08;-2.80;99.90
30381;DHT22;17169;50.966;11.038;2022-12-13T11:28:32;-2.70;99.90
30381;DHT22;17169;50.966;11.038;2022-12-13T11:31:47;-2.70;99.90
30381;DHT22;17169;50.966;11.038;2022-12-13T11:34:58;-2.60;99.90
30381;DHT22;17169;50.966;11.038;2022-12-13T11:38:12;-2.50;99.90
30381;DHT22;17169;50.966;11.038;2022-12-13T11:41:18;-2.40;99.90
30381;DHT22;17169;50.966;11.038;2022-12-13T11:44:33;-2.40;99.90
30381;DHT22;17169;50.966;11.038;2022-12-13T11:47:42;-2.30;99.90
30381;DHT22;17169;50.966;11.038;2022-12-13T11:50:48;-2.30;99.90
30381;DHT22;17169;50.966;11.038;2022-12-13T11:53:51;-2.20;99.90
30381;DHT22;17169;50.966;11.038;2022-12-13T11:56:56;-2.10;99.90
30381;DHT22;17169;50.966;11.038;2022-12-13T12:00:28;-2.10;99.90
30381;DHT22;17169;50.966;11.038;2022-12-13T12:03:36;-2.00;99.90
30381;DHT22;17169;50.966;11.038;2022-12-13T12:06:45;-2.00;99.90
30381;DHT22;17169;50.966;11.038;2022-12-13T12:09:52;-2.00;99.90
30381;DHT22;17169;50.966;11.038;2022-12-13T12:13:00;-2.00;99.90
30381;DHT22;17169;50.966;11.038;2022-12-13T12:16:11;-2.10;99.90
30381;DHT22;17169;50.966;11.038;2022-12-13T12:19:18;-2.10;99.90
30381;DHT22;17169;50.966;11.038;2022-12-13T12:22:30;-2.20;99.90
30381;DHT22;17169;50.966;11.038;2022-12-13T12:25:42;-2.20;99.90
30381;DHT22;17169;50.966;11.038;2022-12-13T12:32:42;-2.20;99.90
30381;DHT22;17169;50.966;11.038;2022-12-13T12:35:57;-2.20;99.90
30381;DHT22;17169;50.966;11.038;2022-12-13T12:39:25;-2.30;99.90
30381;DHT22;17169;50.966;11.038;2022-12-13T12:42:40;-2.30;99.90
30381;DHT22;17169;50.966;11.038;2022-12-13T12:46:00;-2.30;99.90
30381;DHT22;17169;50.966;11.038;2022-12-13T12:49:42;-2.30;99.90
30381;DHT22;17169;50.966;11.038;2022-12-13T12:53:01;-2.30;99.90
30381;DHT22;17169;50.966;11.038;2022-12-13T12:56:26;-2.30;99.90
30381;DHT22;17169;50.966;11.038;2022-12-13T12:59:39;-2.20;99.90
30381;DHT22;17169;50.966;11.038;2022-12-13T13:02:50;-2.30;99.90
30381;DHT22;17169;50.966;11.038;2022-12-13T13:05:57;-2.30;99.90
30381;DHT22;17169;50.966;11.038;2022-12-13T13:09:03;-2.40;99.90
30381;DHT22;17169;50.966;11.038;2022-12-13T13:12:08;-2.40;99.90
30381;DHT22;17169;50.966;11.038;2022-12-13T13:15:46;-2.40;99.90
30381;DHT22;17169;50.966;11.038;2022-12-13T13:18:53;-2.50;99.90
30381;DHT22;17169;50.966;11.038;2022-12-13T13:21:58;-2.50;99.90
30381;DHT22;17169;50.966;11.038;2022-12-13T13:25:19;-2.50;99.90
30381;DHT22;17169;50.966;11.038;2022-12-13T13:28:23;-2.50;99.90
30381;DHT22;17169;50.966;11.038;2022-12-13T13:31:25;-2.50;99.90
30381;DHT22;17169;50.966;11.038;2022-12-13T13:34:29;-2.50;99.90
30381;DHT22;17169;50.966;11.038;2022-12-13T13:37:47;-2.50;99.90
30381;DHT22;17169;50.966;11.038;2022-12-13T13:40:50;-2.50;99.90
30381;DHT22;17169;50.966;11.038;2022-12-13T13:43:52;-2.60;99.90
30381;DHT22;17169;50.966;11.038;2022-12-13T13:47:09;-2.60;99.90
30381;DHT22;17169;50.966;11.038;2022-12-13T13:54:25;-2.60;99.90
30381;DHT22;17169;50.966;11.038;2022-12-13T13:57:57;-2.60;99.90
30381;DHT22;17169;50.966;11.038;2022-12-13T14:01:12;-2.60;99.90
30381;DHT22;17169;50.966;11.038;2022-12-13T14:04:32;-2.70;99.90
30381;DHT22;17169;50.966;11.038;2022-12-13T14:11:29;-2.70;99.90
30381;DHT22;17169;50.966;11.038;2022-12-13T14:19:14;-2.80;99.90
30381;DHT22;17169;50.966;11.038;2022-12-13T14:22:31;-2.80;99.90
30381;DHT22;17169;50.966;11.038;2022-12-13T14:25:46;-2.80;99.90
30381;DHT22;17169;50.966;11.038;2022-12-13T14:28:53;-2.90;99.90
30381;DHT22;17169;50.966;11.038;2022-12-13T14:31:57;-2.90;99.90
30381;DHT22;17169;50.966;11.038;2022-12-13T14:35:01;-2.90;99.90
30381;DHT22;17169;50.966;11.038;2022-12-13T14:38:05;-3.00;99.90
30381;DHT22;17169;50.966;11.038;2022-12-13T14:41:12;-3.00;99.90
30381;DHT22;17169;50.966;11.038;2022-12-13T14:44:21;-3.00;99.90
30381;DHT22;17169;50.966;11.038;2022-12-13T14:47:24;-3.10;99.90
30381;DHT22;17169;50.966;11.038;2022-12-13T14:50:31;-3.10;99.90
30381;DHT22;17169;50.966;11.038;2022-12-13T14:53:37;-3.10;99.90
30381;DHT22;17169;50.966;11.038;2022-12-13T14:56:53;-3.10;99.90
30381;DHT22;17169;50.966;11.038;2022-12-13T14:59:58;-3.20;99.90
30381;DHT22;17169;50.966;11.038;2022-12-13T15:03:02;-3.20;99.90
30381;DHT22;17169;50.966;11.038;2022-12-13T15:06:05;-3.30;99.90
30381;DHT22;17169;50.966;11.038;2022-12-13T15:09:10;-3.30;99.90
30381;DHT22;17169;50.966;11.038;2022-12-13T15:12:13;-3.30;99.90
30381;DHT22;17169;50.966;11.038;2022-12-13T15:15:23;-3.40;99.90
30381;DHT22;17169;50.966;11.038;2022-12-13T15:18:27;-3.40;99.90
30381;DHT22;17169;50.966;11.038;2022-12-13T15:21:29;-3.50;99.90
30381;DHT22;17169;50.966;11.038;2022-12-13T15:24:33;-3.50;99.90
30381;DHT22;17169;50.966;11.038;2022-12-13T15:27:38;-3.60;99.90
30381;DHT22;17169;50.966;11.038;2022-12-13T15:30:42;-3.60;99.90
30381;DHT22;17169;50.966;11.038;2022-12-13T15:33:44;-3.60;99.90
30381;DHT22;17169;50.966;11.038;2022-12-13T15:36:47;-3.60;99.90
30381;DHT22;17169;50.966;11.038;2022-12-13T15:39:51;-3.60;99.90
30381;DHT22;17169;50.966;11.038;2022-12-13T15:42:56;-3.70;99.90
30381;DHT22;17169;50.966;11.038;2022-12-13T15:46:00;-3.70;99.90
30381;DHT22;17169;50.966;11.038;2022-12-13T15:49:03;-3.70;99.90
30381;DHT22;17169;50.966;11.038;2022-12-13T15:52:25;-3.80;99.90
30381;DHT22;17169;50.966;11.038;2022-12-13T15:55:32;-3.80;99.90
30381;DHT22;17169;50.966;11.038;2022-12-13T15:58:36;-3.80;99.90
30381;DHT22;17169;50.966;11.038;2022-12-13T16:01:39;-3.80;99.90
30381;DHT22;17169;50.966;11.038;2022-12-13T16:04:42;-3.90;99.90
30381;DHT22;17169;50.966;11.038;2022-12-13T16:07:48;-3.90;99.90
30381;DHT22;17169;50.966;11.038;2022-12-13T16:10:52;-3.90;99.90
30381;DHT22;17169;50.966;11.038;2022-12-13T16:13:54;-3.90;99.90
30381;DHT22;17169;50.966;11.038;2022-12-13T16:17:14;-4.00;99.90
30381;DHT22;17169;50.966;11.038;2022-12-13T16:20:20;-4.00;99.90
30381;DHT22;17169;50.966;11.038;2022-12-13T16:23:23;-4.00;99.90
30381;DHT22;17169;50.966;11.038;2022-12-13T16:26:27;-4.10;99.90
30381;DHT22;17169;50.966;11.038;2022-12-13T16:29:31;-4.10;99.90
30381;DHT22;17169;50.966;11.038;2022-12-13T16:32:35;-4.10;99.90
30381;DHT22;17169;50.966;11.038;2022-12-13T16:35:37;-4.10;99.90
30381;DHT22;17169;50.966;11.038;2022-12-13T16:38:39;-4.20;99.90
30381;DHT22;17169;50.966;11.038;2022-12-13T16:41:44;-4.20;99.90
30381;DHT22;17169;50.966;11.038;2022-12-13T16:44:47;-4.30;99.90
30381;DHT22;17169;50.966;11.038;2022-12-13T16:47:51;-4.30;99.90
30381;DHT22;17169;50.966;11.038;2022-12-13T16:50:54;-4.40;99.90
30381;DHT22;17169;50.966;11.038;2022-12-13T16:53:56;-4.50;99.90
30381;DHT22;17169;50.966;11.038;2022-12-13T16:56:58;-4.50;99.90
30381;DHT22;17169;50.966;11.038;2022-12-13T17:00:01;-4.50;99.90
30381;DHT22;17169;50.966;11.038;2022-12-13T17:03:05;-4.50;99.90
30381;DHT22;17169;50.966;11.038;2022-12-13T17:06:09;-4.50;99.90
30381;DHT22;17169;50.966;11.038;2022-12-13T17:09:12;-4.50;99.90
30381;DHT22;17169;50.966;11.038;2022-12-13T17:12:14;-4.50;99.90
30381;DHT22;17169;50.966;11.038;2022-12-13T17:15:16;-4.50;99.90
30381;DHT22;17169;50.966;11.038;2022-12-13T17:18:20;-4.50;99.90
30381;DHT22;17169;50.966;11.038;2022-12-13T17:21:24;-4.50;99.90
30381;DHT22;17169;50.966;11.038;2022-12-13T17:24:29;-4.50;99.90
30381;DHT22;17169;50.966;11.038;2022-12-13T17:27:32;-4.50;99.90
30381;DHT22;17169;50.966;11.038;2022-12-13T17:30:34;-4.50;99.90
30381;DHT22;17169;50.966;11.038;2022-12-13T17:33:38;-4.50;99.90
30381;DHT22;17169;50.966;11.038;2022-12-13T17:36:41;-4.40;99.90
30381;DHT22;17169;50.966;11.038;2022-12-13T17:39:44;-4.40;99.90
30381;DHT22;17169;50.966;11.038;2022-12-13T17:42:47;-4.40;99.90
30381;DHT22;17169;50.966;11.038;2022-12-13T17:45:54;-4.40;99.90
30381;DHT22;17169;50.966;11.038;2022-12-13T17:48:58;-4.40;99.90
30381;DHT22;17169;50.966;11.038;2022-12-13T17:52:01;-4.30;99.90
30381;DHT22;17169;50.966;11.038;2022-12-13T17:55:03;-4.40;99.90
30381;DHT22;17169;50.966;11.038;2022-12-13T17:58:06;-4.40;99.90
30381;DHT22;17169;50.966;11.038;2022-12-13T18:01:10;-4.40;99.90
30381;DHT22;17169;50.966;11.038;2022-12-13T18:04:14;-4.50;99.90
30381;DHT22;17169;50.966;11.038;2022-12-13T18:07:16;-4.50;99.90
30381;DHT22;17169;50.966;11.038;2022-12-13T18:10:19;-4.50;99.90
30381;DHT22;17169;50.966;11.038;2022-12-13T18:13:21;-4.50;99.90
30381;DHT22;17169;50.966;11.038;2022-12-13T18:16:25;-4.50;99.90
30381;DHT22;17169;50.966;11.038;2022-12-13T18:19:29;-4.50;99.90
30381;DHT22;17169;50.966;11.038;2022-12-13T18:22:32;-4.50;99.90
30381;DHT22;17169;50.966;11.038;2022-12-13T18:25:34;-4.50;99.90
30381;DHT22;17169;50.966;11.038;2022-12-13T18:28:37;-4.60;99.90
30381;DHT22;17169;50.966;11.038;2022-12-13T18:31:39;-4.60;99.90
30381;DHT22;17169;50.966;11.038;2022-12-13T18:34:43;-4.60;99.90
30381;DHT22;17169;50.966;11.038;2022-12-13T18:37:46;-4.70;99.90
30381;DHT22;17169;50.966;11.038;2022-12-13T18:40:48;-4.70;99.90
30381;DHT22;17169;50.966;11.038;2022-12-13T18:43:54;-4.60;99.90
30381;DHT22;17169;50.966;11.038;2022-12-13T18:46:57;-4.60;99.90
30381;DHT22;17169;50.966;11.038;2022-12-13T18:50:00;-4.60;99.90
30381;DHT22;17169;50.966;11.038;2022-12-13T18:53:03;-4.70;99.90
30381;DHT22;17169;50.966;11.038;2022-12-13T18:56:07;-4.60;99.90
30381;DHT22;17169;50.966;11.038;2022-12-13T18:59:10;-4.70;99.90
30381;DHT22;17169;50.966;11.038;2022-12-13T19:02:13;-4.70;99.90
30381;DHT22;17169;50.966;11.038;2022-12-13T19:05:17;-4.60;99.90
30381;DHT22;17169;50.966;11.038;2022-12-13T19:08:19;-4.60;99.90
30381;DHT22;17169;50.966;11.038;2022-12-13T19:11:27;-4.60;99.90
30381;DHT22;17169;50.966;11.038;2022-12-13T19:14:29;-4.70;99.90
30381;DHT22;17169;50.966;11.038;2022-12-13T19:17:32;-4.60;99.90
30381;DHT22;17169;50.966;11.038;2022-12-13T19:20:35;-4.70;99.90
30381;DHT22;17169;50.966;11.038;2022-12-13T19:23:38;-4.60;99.90
30381;DHT22;17169;50.966;11.038;2022-12-13T19:26:40;-4.70;99.90
30381;DHT22;17169;50.966;11.038;2022-12-13T19:29:43;-4.70;99.90
30381;DHT22;17169;50.966;11.038;2022-12-13T19:32:45;-4.70;99.90